createdAt,value
2017-07-22T00:00:00.872Z,65.33
2017-07-22T00:00:27.052Z,65.53
2017-07-22T00:00:53.195Z,66.2
2017-07-22T00:01:19.323Z,66.2
2017-07-22T00:01:45.458Z,66.01
2017-07-22T00:02:11.594Z,66.3
2017-07-22T00:02:37.720Z,66.2
2017-07-22T00:03:03.908Z,66.2
2017-07-22T00:03:30.026Z,66.3
2017-07-22T00:03:56.145Z,66.3
2017-07-22T00:04:22.334Z,66.49
2017-07-22T00:04:48.482Z,66.49
2017-07-22T00:05:14.601Z,66.49
2017-07-22T00:05:40.707Z,66.49
2017-07-22T00:06:06.881Z,66.39
2017-07-22T00:06:33.070Z,66.39
2017-07-22T00:06:59.186Z,66.3
2017-07-22T00:07:25.333Z,66.2
2017-07-22T00:07:51.470Z,66.78
2017-07-22T00:08:17.615Z,66.49
2017-07-22T00:08:43.704Z,66.39
2017-07-22T00:09:09.866Z,66.59
2017-07-22T00:09:36.039Z,66.97
2017-07-22T00:10:02.179Z,66.78
2017-07-22T00:10:28.339Z,66.59
2017-07-22T00:10:54.438Z,66.69
2017-07-22T00:11:20.613Z,66.69
2017-07-22T00:11:46.758Z,66.88
2017-07-22T00:12:12.871Z,66.69
2017-07-22T00:12:38.981Z,66.78
2017-07-22T00:13:05.108Z,66.78
2017-07-22T00:13:31.221Z,66.88
2017-07-22T00:13:57.381Z,67.16
2017-07-22T00:14:23.510Z,66.59
2017-07-22T00:14:49.649Z,67.16
2017-07-22T00:15:15.779Z,66.88
2017-07-22T00:15:41.912Z,66.78
2017-07-22T00:16:08.031Z,66.69
2017-07-22T00:16:34.123Z,66.88
2017-07-22T00:17:00.219Z,66.78
2017-07-22T00:17:26.350Z,66.69
2017-07-22T00:17:52.510Z,66.59
2017-07-22T00:18:18.620Z,66.88
2017-07-22T00:18:44.750Z,66.69
2017-07-22T00:19:10.910Z,66.88
2017-07-22T00:19:37.052Z,67.16
2017-07-22T00:20:03.154Z,66.69
2017-07-22T00:20:29.346Z,66.78
2017-07-22T00:20:55.513Z,66.49
2017-07-22T00:21:21.637Z,66.97
2017-07-22T00:21:47.770Z,67.36
2017-07-22T00:22:13.865Z,67.16
2017-07-22T00:22:40.000Z,67.07
2017-07-22T00:23:06.094Z,67.26
2017-07-22T00:23:32.214Z,66.97
2017-07-22T00:23:58.347Z,67.36
2017-07-22T00:24:24.492Z,66.88
2017-07-22T00:24:50.638Z,66.97
2017-07-22T00:25:16.773Z,67.07
2017-07-22T00:25:42.892Z,67.07
2017-07-22T00:26:09.010Z,66.97
2017-07-22T00:26:35.143Z,67.26
2017-07-22T00:27:01.296Z,66.88
2017-07-22T00:27:27.510Z,67.36
2017-07-22T00:27:53.643Z,67.16
2017-07-22T00:28:19.761Z,67.26
2017-07-22T00:28:45.868Z,67.26
2017-07-22T00:29:12.015Z,67.46
2017-07-22T00:29:38.132Z,67.26
2017-07-22T00:30:04.266Z,67.26
2017-07-22T00:30:30.447Z,67.26
2017-07-22T00:30:56.588Z,67.36
2017-07-22T00:31:22.748Z,66.78
2017-07-22T00:31:48.909Z,66.97
2017-07-22T00:32:15.047Z,67.36
2017-07-22T00:32:41.241Z,67.07
2017-07-22T00:33:07.408Z,67.26
2017-07-22T00:33:33.556Z,67.26
2017-07-22T00:33:59.655Z,66.97
2017-07-22T00:34:25.813Z,67.55
2017-07-22T00:34:51.967Z,67.81
2017-07-22T00:35:18.093Z,67.71
2017-07-22T00:35:44.260Z,67.9
2017-07-22T00:36:10.387Z,67.94
2017-07-22T00:36:36.540Z,67.74
2017-07-22T00:37:02.628Z,67.84
2017-07-22T00:37:28.752Z,67.61
2017-07-22T00:37:54.859Z,67.84
2017-07-22T00:38:20.948Z,68.23
2017-07-22T00:38:47.044Z,67.84
2017-07-22T00:39:13.196Z,68.23
2017-07-22T00:39:39.325Z,67.65
2017-07-22T00:40:05.514Z,67.26
2017-07-22T00:40:31.727Z,67.07
2017-07-22T00:40:57.901Z,67.07
2017-07-22T00:41:24.064Z,67.46
2017-07-22T00:41:50.178Z,67.55
2017-07-22T00:42:16.321Z,67.07
2017-07-22T00:42:42.452Z,67.65
2017-07-22T00:43:08.651Z,66.69
2017-07-22T00:43:34.767Z,66.59
2017-07-22T00:44:00.957Z,66.69
2017-07-22T00:44:27.135Z,66.59
2017-07-22T00:44:53.272Z,66.59
2017-07-22T00:45:19.434Z,66.88
2017-07-22T00:45:45.590Z,67.07
2017-07-22T00:46:11.706Z,67.46
2017-07-22T00:46:37.889Z,67.74
2017-07-22T00:47:04.082Z,67.46
2017-07-22T00:47:30.220Z,67.36
2017-07-22T00:47:56.346Z,67.26
2017-07-22T00:48:22.482Z,67.46
2017-07-22T00:48:48.624Z,67.26
2017-07-22T00:49:14.748Z,67.84
2017-07-22T00:49:40.886Z,67.84
2017-07-22T00:50:07.078Z,68.04
2017-07-22T00:50:33.264Z,67.84
2017-07-22T00:50:59.427Z,67.94
2017-07-22T00:51:25.602Z,67.94
2017-07-22T00:51:51.821Z,67.46
2017-07-22T00:52:17.957Z,67.46
2017-07-22T00:52:44.080Z,67.74
2017-07-22T00:53:10.244Z,67.84
2017-07-22T00:53:36.398Z,68.04
2017-07-22T00:54:02.637Z,67.16
2017-07-22T00:54:28.803Z,67.55
2017-07-22T00:54:54.952Z,67.26
2017-07-22T00:55:21.069Z,67.46
2017-07-22T00:55:47.278Z,67.36
2017-07-22T00:56:13.396Z,67.16
2017-07-22T00:56:39.503Z,67.26
2017-07-22T00:57:05.624Z,68.13
2017-07-22T00:57:31.716Z,68.04
2017-07-22T00:57:57.913Z,67.74
2017-07-22T00:58:24.058Z,67.84
2017-07-22T00:58:50.208Z,68.23
2017-07-22T00:59:16.390Z,68.13
2017-07-22T00:59:42.491Z,68.13
2017-07-22T01:00:08.636Z,67.84
2017-07-22T01:00:34.797Z,67.71
2017-07-22T01:01:00.910Z,68.13
2017-07-22T01:01:27.003Z,68.42
2017-07-22T01:01:53.171Z,68.42
2017-07-22T01:02:19.318Z,68.42
2017-07-22T01:02:45.497Z,68.42
2017-07-22T01:03:11.666Z,68.19
2017-07-22T01:03:37.758Z,68.32
2017-07-22T01:04:03.911Z,68.77
2017-07-22T01:04:30.040Z,68.68
2017-07-22T01:04:56.164Z,68.87
2017-07-22T01:05:22.313Z,68.77
2017-07-22T01:05:48.509Z,68.77
2017-07-22T01:06:14.632Z,69.19
2017-07-22T01:06:40.747Z,69.15
2017-07-22T01:07:06.900Z,68.87
2017-07-22T01:07:33.118Z,68.9
2017-07-22T01:07:59.281Z,68.77
2017-07-22T01:08:25.476Z,68.8
2017-07-22T01:08:51.607Z,68.99
2017-07-22T01:09:17.767Z,69.19
2017-07-22T01:09:43.908Z,69.09
2017-07-22T01:10:10.005Z,68.48
2017-07-22T01:10:36.139Z,69.19
2017-07-22T01:11:02.262Z,68.99
2017-07-22T01:11:28.379Z,68.68
2017-07-22T01:11:54.491Z,68.8
2017-07-22T01:12:20.613Z,69.19
2017-07-22T01:12:46.740Z,68.8
2017-07-22T01:13:12.833Z,68.71
2017-07-22T01:13:38.982Z,69.09
2017-07-22T01:14:05.142Z,69.15
2017-07-22T01:14:31.391Z,68.68
2017-07-22T01:14:57.481Z,68.58
2017-07-22T01:15:23.667Z,68.68
2017-07-22T01:15:49.790Z,68.8
2017-07-22T01:16:15.906Z,68.68
2017-07-22T01:16:42.065Z,68.87
2017-07-22T01:17:08.217Z,68.68
2017-07-22T01:17:34.358Z,68.71
2017-07-22T01:18:00.542Z,68.87
2017-07-22T01:18:26.710Z,68.68
2017-07-22T01:18:52.822Z,68.61
2017-07-22T01:19:19.000Z,68.96
2017-07-22T01:19:45.114Z,68.9
2017-07-22T01:20:11.247Z,69.09
2017-07-22T01:20:37.379Z,68.87
2017-07-22T01:21:03.464Z,68.96
2017-07-22T01:21:29.594Z,68.96
2017-07-22T01:22:51.661Z,69.15
2017-07-22T01:23:17.799Z,69.35
2017-07-22T01:23:43.937Z,69.45
2017-07-22T01:24:10.034Z,69.25
2017-07-22T01:24:36.189Z,69.45
2017-07-22T01:25:02.357Z,69.45
2017-07-22T01:25:28.503Z,69.45
2017-07-22T01:25:54.666Z,69.45
2017-07-22T01:26:20.841Z,69.45
2017-07-22T01:26:46.956Z,69.35
2017-07-22T01:27:13.122Z,69.45
2017-07-22T01:27:39.270Z,69.25
2017-07-22T01:28:05.409Z,69.15
2017-07-22T01:28:31.541Z,69.83
2017-07-22T01:28:57.668Z,69.15
2017-07-22T01:29:23.782Z,69.48
2017-07-22T01:29:49.913Z,69.64
2017-07-22T01:30:16.022Z,69.15
2017-07-22T01:30:42.182Z,69.45
2017-07-22T01:31:08.283Z,69.25
2017-07-22T01:31:34.390Z,69.57
2017-07-22T01:32:00.532Z,69.25
2017-07-22T01:32:26.628Z,68.99
2017-07-22T01:32:52.735Z,68.87
2017-07-22T01:33:18.856Z,68.9
2017-07-22T01:33:44.974Z,68.99
2017-07-22T01:34:11.162Z,69.38
2017-07-22T01:34:37.290Z,68.9
2017-07-22T01:35:03.399Z,68.8
2017-07-22T01:35:29.559Z,69.57
2017-07-22T01:35:55.653Z,69.48
2017-07-22T01:36:21.817Z,68.71
2017-07-22T01:36:47.912Z,68.71
2017-07-22T01:37:14.051Z,68.71
2017-07-22T01:37:40.190Z,68.48
2017-07-22T01:38:06.286Z,68.8
2017-07-22T01:38:32.403Z,68.9
2017-07-22T01:38:58.539Z,68.99
2017-07-22T01:39:24.667Z,68.99
2017-07-22T01:39:50.780Z,68.71
2017-07-22T01:40:16.933Z,68.52
2017-07-22T01:40:43.093Z,68.71
2017-07-22T01:41:09.210Z,68.52
2017-07-22T01:41:35.360Z,68.61
2017-07-22T01:42:01.526Z,68.8
2017-07-22T01:42:27.685Z,68.9
2017-07-22T01:42:53.783Z,68.42
2017-07-22T01:43:19.926Z,68.99
2017-07-22T01:43:46.057Z,68.71
2017-07-22T01:44:12.218Z,68.99
2017-07-22T01:44:38.332Z,68.32
2017-07-22T01:45:04.462Z,68.71
2017-07-22T01:45:30.620Z,68.52
2017-07-22T01:45:56.712Z,68.9
2017-07-22T01:46:22.810Z,68.9
2017-07-22T01:46:48.988Z,68.9
2017-07-22T01:47:15.114Z,68.99
2017-07-22T01:47:41.276Z,68.9
2017-07-22T01:48:07.388Z,69.09
2017-07-22T01:48:33.515Z,68.71
2017-07-22T01:48:59.677Z,68.42
2017-07-22T01:49:25.768Z,68.71
2017-07-22T01:49:51.892Z,68.71
2017-07-22T01:50:18.055Z,68.52
2017-07-22T01:50:44.257Z,68.71
2017-07-22T01:51:10.397Z,68.9
2017-07-22T01:51:36.535Z,69.38
2017-07-22T01:52:02.708Z,69.38
2017-07-22T01:52:28.813Z,68.99
2017-07-22T01:52:54.953Z,68.9
2017-07-22T01:53:21.050Z,68.8
2017-07-22T01:53:47.216Z,69.57
2017-07-22T01:54:13.336Z,69.19
2017-07-22T01:54:39.475Z,69.77
2017-07-22T01:55:05.641Z,69.29
2017-07-22T01:55:31.739Z,69.29
2017-07-22T01:55:57.875Z,69.29
2017-07-22T01:56:24.038Z,69.19
2017-07-22T01:56:50.249Z,69.57
2017-07-22T01:57:16.364Z,69.48
2017-07-22T01:57:42.517Z,69.29
2017-07-22T01:58:08.686Z,69.29
2017-07-22T01:58:34.820Z,69.77
2017-07-22T01:59:00.997Z,69.67
2017-07-22T01:59:27.160Z,69.29
2017-07-22T01:59:53.321Z,69.38
2017-07-22T02:00:19.449Z,69.29
2017-07-22T02:00:45.542Z,69.29
2017-07-22T02:01:11.674Z,69.19
2017-07-22T02:01:37.833Z,69.38
2017-07-22T02:02:03.922Z,69.19
2017-07-22T02:02:30.389Z,69.29
2017-07-22T02:02:56.515Z,69.38
2017-07-22T02:03:22.689Z,69.38
2017-07-22T02:03:48.813Z,69.35
2017-07-22T02:04:14.948Z,69.45
2017-07-22T02:04:41.127Z,69.54
2017-07-22T02:05:07.286Z,69.67
2017-07-22T02:05:33.450Z,69.06
2017-07-22T02:05:59.597Z,69.93
2017-07-22T02:06:25.784Z,69.06
2017-07-22T02:06:51.895Z,69.67
2017-07-22T02:07:18.036Z,69.38
2017-07-22T02:07:44.225Z,69.29
2017-07-22T02:08:10.397Z,69.19
2017-07-22T02:08:36.594Z,69.09
2017-07-22T02:09:02.718Z,69.29
2017-07-22T02:09:28.890Z,69.09
2017-07-22T02:09:55.019Z,69.54
2017-07-22T02:10:21.185Z,69.54
2017-07-22T02:10:47.329Z,69.83
2017-07-22T02:11:13.457Z,69.73
2017-07-22T02:11:39.597Z,69.54
2017-07-22T02:12:05.732Z,70.02
2017-07-22T02:12:31.890Z,69.64
2017-07-22T02:12:58.032Z,70.21
2017-07-22T02:13:24.141Z,69.87
2017-07-22T02:13:50.328Z,70.02
2017-07-22T02:14:16.449Z,69.83
2017-07-22T02:14:42.616Z,69.93
2017-07-22T02:15:08.824Z,69.38
2017-07-22T02:15:34.952Z,69.77
2017-07-22T02:16:01.088Z,69.83
2017-07-22T02:16:27.267Z,69.67
2017-07-22T02:16:53.425Z,69.87
2017-07-22T02:17:19.568Z,69.67
2017-07-22T02:17:45.708Z,69.48
2017-07-22T02:18:11.867Z,69.93
2017-07-22T02:18:38.077Z,69.57
2017-07-22T02:19:04.217Z,69.93
2017-07-22T02:19:30.376Z,70.06
2017-07-22T02:19:56.493Z,70.06
2017-07-22T02:20:22.650Z,69.83
2017-07-22T02:20:48.786Z,70.41
2017-07-22T02:21:15.016Z,70.31
2017-07-22T02:21:41.203Z,70.21
2017-07-22T02:22:07.403Z,70.41
2017-07-22T02:22:33.576Z,69.93
2017-07-22T02:22:59.761Z,70.31
2017-07-22T02:23:25.935Z,70.79
2017-07-22T02:23:52.100Z,70.79
2017-07-22T02:24:18.253Z,70.41
2017-07-22T02:24:44.373Z,70.25
2017-07-22T02:25:10.512Z,70.06
2017-07-22T02:25:36.694Z,70.06
2017-07-22T02:26:02.832Z,70.35
2017-07-22T02:26:28.959Z,69.87
2017-07-22T02:26:55.140Z,70.41
2017-07-22T02:27:21.308Z,70.06
2017-07-22T02:27:47.433Z,70.21
2017-07-22T02:28:13.615Z,70.41
2017-07-22T02:28:39.757Z,70.7
2017-07-22T02:29:05.939Z,70.31
2017-07-22T02:29:32.187Z,70.21
2017-07-22T02:29:58.348Z,70.5
2017-07-22T02:30:24.591Z,70.6
2017-07-22T02:30:50.774Z,70.25
2017-07-22T02:31:16.937Z,70.25
2017-07-22T02:31:43.150Z,69.96
2017-07-22T02:32:09.372Z,69.87
2017-07-22T02:32:35.528Z,70.15
2017-07-22T02:33:01.745Z,70.06
2017-07-22T02:33:27.882Z,70.06
2017-07-22T02:33:54.059Z,70.15
2017-07-22T02:34:20.187Z,70.83
2017-07-22T02:34:46.409Z,70.35
2017-07-22T02:35:12.615Z,70.35
2017-07-22T02:35:38.771Z,70.54
2017-07-22T02:36:04.911Z,70.35
2017-07-22T02:36:31.108Z,70.54
2017-07-22T02:36:57.352Z,70.64
2017-07-22T02:37:23.558Z,70.35
2017-07-22T02:37:49.717Z,70.15
2017-07-22T02:38:15.878Z,70.06
2017-07-22T02:38:42.080Z,70.73
2017-07-22T02:39:08.265Z,70.25
2017-07-22T02:39:34.409Z,71.47
2017-07-22T02:40:00.570Z,71.95
2017-07-22T02:40:26.700Z,72.43
2017-07-22T02:40:52.874Z,72.72
2017-07-22T02:41:19.102Z,72.33
2017-07-22T02:41:45.274Z,72.43
2017-07-22T02:42:11.521Z,72.91
2017-07-22T02:42:37.694Z,72.63
2017-07-22T02:43:03.808Z,72.97
2017-07-22T02:43:29.947Z,73.07
2017-07-22T02:43:56.106Z,73.84
2017-07-22T02:44:22.334Z,73.65
2017-07-22T02:44:48.482Z,73.94
2017-07-22T02:45:14.702Z,73.55
2017-07-22T02:45:40.854Z,73.68
2017-07-22T02:46:07.020Z,73.94
2017-07-22T02:46:33.143Z,73.26
2017-07-22T02:46:59.305Z,73.2
2017-07-22T02:47:25.500Z,73.39
2017-07-22T02:47:51.679Z,73.01
2017-07-22T02:48:17.791Z,73.3
2017-07-22T02:48:43.983Z,72.72
2017-07-22T02:49:10.134Z,73.49
2017-07-22T02:49:36.360Z,73.39
2017-07-22T02:50:02.541Z,73.97
2017-07-22T02:50:28.700Z,73.78
2017-07-22T02:50:54.832Z,73.88
2017-07-22T02:51:21.007Z,75.03
2017-07-22T02:51:47.225Z,75.99
2017-07-22T02:52:13.452Z,76.57
2017-07-22T02:52:39.594Z,76.48
2017-07-22T02:53:05.813Z,78.11
2017-07-22T02:53:31.988Z,78.21
2017-07-22T02:53:58.172Z,80.52
2017-07-22T02:54:24.363Z,80.68
2017-07-22T02:54:50.602Z,81.2
2017-07-22T02:55:16.827Z,84.14
2017-07-22T02:55:43.023Z,86.11
2017-07-22T02:56:09.224Z,88.28
2017-07-22T02:56:35.408Z,92.61
2017-07-22T02:57:01.555Z,93.09
2017-07-22T02:57:27.777Z,94.82
2017-07-22T02:57:53.939Z,96.08
2017-07-22T02:58:20.111Z,93.05
2017-07-22T02:58:46.306Z,93.82
2017-07-22T02:59:12.468Z,94.15
2017-07-22T02:59:38.675Z,97.09
2017-07-22T03:00:04.813Z,98.82
2017-07-22T03:00:30.970Z,99.99
2017-07-22T03:00:57.125Z,99.99
2017-07-22T03:01:23.316Z,99.99
2017-07-22T03:01:49.493Z,99.99
2017-07-22T03:02:15.652Z,99.99
2017-07-22T03:02:41.759Z,99.99
2017-07-22T03:03:07.907Z,99.99
2017-07-22T03:03:34.095Z,99.99
2017-07-22T03:04:00.240Z,99.99
2017-07-22T03:04:26.404Z,99.99
2017-07-22T03:04:52.563Z,99.99
2017-07-22T03:05:18.679Z,99.99
2017-07-22T03:05:44.839Z,99.99
2017-07-22T03:06:11.004Z,99.99
2017-07-22T03:06:37.206Z,99.99
2017-07-22T03:07:03.365Z,99.99
2017-07-22T03:07:29.530Z,99.99
2017-07-22T03:07:55.756Z,99.99
2017-07-22T03:08:21.913Z,99.99
2017-07-22T03:08:48.064Z,99.99
2017-07-22T03:09:14.226Z,99.99
2017-07-22T03:09:40.412Z,99.99
2017-07-22T03:10:06.527Z,99.99
2017-07-22T03:10:32.707Z,99.99
2017-07-22T03:10:58.848Z,99.99
2017-07-22T03:11:25.015Z,99.99
2017-07-22T03:11:51.235Z,99.99
2017-07-22T03:12:17.472Z,99.99
2017-07-22T03:12:43.688Z,99.99
2017-07-22T03:13:09.903Z,99.99
2017-07-22T03:13:36.087Z,99.99
2017-07-22T03:14:02.253Z,99.99
2017-07-22T03:14:28.433Z,99.99
2017-07-22T03:14:54.557Z,99.99
2017-07-22T03:15:20.776Z,99.99
2017-07-22T03:15:46.921Z,99.99
2017-07-22T03:16:13.034Z,99.99
2017-07-22T03:16:39.222Z,99.99
2017-07-22T03:17:05.404Z,99.99
2017-07-22T03:17:31.539Z,99.99
2017-07-22T03:17:57.722Z,99.99
2017-07-22T03:18:23.912Z,99.99
2017-07-22T03:18:50.073Z,99.99
2017-07-22T03:19:16.247Z,99.99
2017-07-22T03:19:42.433Z,99.99
2017-07-22T03:20:08.545Z,99.99
2017-07-22T03:20:34.719Z,99.99
2017-07-22T03:21:00.938Z,99.99
2017-07-22T03:21:27.049Z,99.99
2017-07-22T03:21:53.206Z,99.99
2017-07-22T03:22:19.369Z,99.99
2017-07-22T03:22:45.517Z,99.99
2017-07-22T03:23:11.710Z,99.99
2017-07-22T03:23:37.850Z,99.99
2017-07-22T03:24:04.027Z,99.99
2017-07-22T03:24:30.247Z,99.99
2017-07-22T03:24:56.460Z,99.99
2017-07-22T03:25:22.648Z,99.99
2017-07-22T03:25:48.778Z,99.99
2017-07-22T03:26:14.981Z,99.99
2017-07-22T03:26:41.180Z,99.99
2017-07-22T03:27:07.341Z,99.99
2017-07-22T03:27:33.480Z,99.99
2017-07-22T03:27:59.603Z,99.99
2017-07-22T03:28:25.803Z,99.99
2017-07-22T03:28:51.914Z,99.99
2017-07-22T03:29:18.097Z,99.99
2017-07-22T03:29:44.271Z,99.99
2017-07-22T03:30:10.431Z,99.99
2017-07-22T03:30:36.646Z,99.99
2017-07-22T03:31:02.827Z,99.99
2017-07-22T03:31:29.021Z,99.99
2017-07-22T03:31:55.231Z,99.99
2017-07-22T03:32:21.478Z,99.99
2017-07-22T03:32:47.678Z,99.99
2017-07-22T03:33:13.857Z,99.99
2017-07-22T03:33:39.969Z,99.99
2017-07-22T03:34:06.094Z,99.99
2017-07-22T03:34:32.283Z,99.99
2017-07-22T03:34:58.449Z,99.99
2017-07-22T03:35:24.605Z,99.99
2017-07-22T03:35:50.786Z,99.99
2017-07-22T03:36:16.949Z,99.99
2017-07-22T03:36:43.127Z,99.99
2017-07-22T03:37:09.288Z,99.99
2017-07-22T03:37:35.422Z,99.99
2017-07-22T03:38:01.596Z,99.99
2017-07-22T03:38:27.777Z,99.99
2017-07-22T03:38:53.967Z,99.99
2017-07-22T03:39:20.090Z,99.99
2017-07-22T03:39:46.252Z,99.99
2017-07-22T03:40:12.455Z,99.99
2017-07-22T03:40:38.578Z,99.99
2017-07-22T03:41:04.772Z,99.99
2017-07-22T03:41:30.920Z,99.99
2017-07-22T03:41:57.106Z,99.99
2017-07-22T03:42:23.278Z,99.99
2017-07-22T03:42:49.415Z,99.99
2017-07-22T03:43:15.597Z,99.99
2017-07-22T03:43:41.806Z,99.99
2017-07-22T03:44:07.969Z,99.99
2017-07-22T03:44:34.089Z,99.99
2017-07-22T03:45:00.305Z,99.99
2017-07-22T03:45:26.437Z,99.99
2017-07-22T03:45:52.591Z,99.99
2017-07-22T03:46:18.779Z,99.99
2017-07-22T03:46:44.917Z,99.99
2017-07-22T03:47:11.092Z,99.99
2017-07-22T03:47:37.247Z,99.99
2017-07-22T03:48:03.417Z,99.99
2017-07-22T03:48:29.590Z,99.99
2017-07-22T03:48:55.810Z,99.99
2017-07-22T03:49:21.951Z,99.99
2017-07-22T03:49:48.156Z,99.99
2017-07-22T03:50:14.338Z,99.99
2017-07-22T03:50:40.484Z,99.99
2017-07-22T03:51:06.637Z,99.99
2017-07-22T03:51:32.777Z,99.99
2017-07-22T03:51:58.926Z,99.99
2017-07-22T03:52:25.081Z,99.99
2017-07-22T03:52:51.220Z,99.99
2017-07-22T03:53:17.359Z,99.99
2017-07-22T03:53:43.485Z,99.99
2017-07-22T03:54:09.601Z,99.99
2017-07-22T03:54:35.768Z,99.99
2017-07-22T03:55:01.980Z,99.99
2017-07-22T03:55:28.182Z,99.99
2017-07-22T03:55:54.310Z,99.99
2017-07-22T03:56:20.493Z,99.99
2017-07-22T03:56:46.625Z,99.99
2017-07-22T03:57:12.754Z,99.99
2017-07-22T03:57:38.869Z,99.99
2017-07-22T03:58:05.038Z,99.99
2017-07-22T03:58:31.221Z,99.99
2017-07-22T03:58:57.376Z,99.99
2017-07-22T03:59:23.509Z,99.99
2017-07-22T03:59:49.694Z,99.99
2017-07-22T04:00:15.880Z,99.99
2017-07-22T04:00:41.995Z,99.99
2017-07-22T04:01:08.139Z,99.99
2017-07-22T04:01:34.331Z,99.99
2017-07-22T04:02:00.457Z,99.99
2017-07-22T04:02:26.579Z,99.99
2017-07-22T04:02:52.799Z,99.99
2017-07-22T04:03:18.983Z,99.99
2017-07-22T04:03:45.141Z,99.99
2017-07-22T04:04:11.304Z,99.99
2017-07-22T04:04:37.477Z,99.99
2017-07-22T04:05:03.631Z,99.99
2017-07-22T04:05:29.825Z,99.99
2017-07-22T04:05:55.941Z,99.99
2017-07-22T04:06:22.150Z,99.99
2017-07-22T04:06:48.366Z,99.99
2017-07-22T04:07:14.523Z,99.99
2017-07-22T04:07:40.691Z,99.99
2017-07-22T04:08:06.867Z,99.99
2017-07-22T04:08:33.021Z,99.99
2017-07-22T04:08:59.161Z,99.99
2017-07-22T04:09:25.306Z,99.99
2017-07-22T04:09:51.495Z,99.99
2017-07-22T04:10:17.661Z,99.99
2017-07-22T04:10:43.825Z,99.99
2017-07-22T04:11:10.014Z,99.99
2017-07-22T04:11:36.160Z,99.99
2017-07-22T04:12:02.305Z,99.99
2017-07-22T04:12:28.501Z,99.99
2017-07-22T04:12:54.615Z,99.99
2017-07-22T04:13:20.851Z,99.99
2017-07-22T04:13:46.980Z,99.99
2017-07-22T04:14:13.117Z,99.99
2017-07-22T04:14:39.273Z,99.99
2017-07-22T04:15:05.426Z,99.99
2017-07-22T04:15:31.561Z,99.99
2017-07-22T04:15:57.683Z,99.99
2017-07-22T04:16:23.832Z,99.99
2017-07-22T04:16:49.944Z,99.99
2017-07-22T04:17:16.125Z,99.99
2017-07-22T04:17:42.234Z,99.99
2017-07-22T04:18:08.427Z,99.99
2017-07-22T04:18:34.576Z,99.99
2017-07-22T04:19:00.773Z,99.99
2017-07-22T04:19:26.932Z,99.99
2017-07-22T04:19:53.053Z,99.99
2017-07-22T04:20:19.193Z,99.99
2017-07-22T04:20:45.376Z,99.99
2017-07-22T04:21:11.563Z,99.99
2017-07-22T04:21:37.698Z,99.99
2017-07-22T04:22:03.847Z,99.99
2017-07-22T04:22:30.038Z,99.99
2017-07-22T04:22:56.180Z,99.99
2017-07-22T04:23:22.340Z,99.99
2017-07-22T04:23:48.530Z,99.99
2017-07-22T04:24:14.714Z,99.99
2017-07-22T04:24:40.902Z,99.99
2017-07-22T04:25:07.067Z,99.99
2017-07-22T04:25:33.221Z,99.99
2017-07-22T04:25:59.344Z,99.99
2017-07-22T04:26:25.454Z,99.99
2017-07-22T04:26:51.592Z,99.99
2017-07-22T04:27:17.779Z,99.99
2017-07-22T04:27:43.895Z,99.99
2017-07-22T04:28:10.032Z,99.99
2017-07-22T04:28:36.191Z,99.99
2017-07-22T04:29:02.337Z,99.99
2017-07-22T04:29:28.502Z,99.99
2017-07-22T04:29:54.630Z,99.99
2017-07-22T04:30:20.817Z,99.99
2017-07-22T04:30:46.987Z,99.99
2017-07-22T04:31:13.159Z,99.99
2017-07-22T04:31:39.315Z,99.99
2017-07-22T04:32:05.503Z,99.99
2017-07-22T04:32:31.619Z,99.99
2017-07-22T04:32:57.831Z,99.99
2017-07-22T04:33:23.942Z,99.99
2017-07-22T04:33:50.055Z,99.99
2017-07-22T04:34:16.264Z,99.99
2017-07-22T04:34:42.415Z,99.99
2017-07-22T04:35:08.571Z,99.99
2017-07-22T04:35:34.704Z,99.99
2017-07-22T04:36:00.824Z,99.99
2017-07-22T04:36:27.010Z,99.99
2017-07-22T04:36:53.118Z,99.99
2017-07-22T04:37:19.313Z,99.99
2017-07-22T04:37:45.470Z,99.99
2017-07-22T04:38:11.613Z,99.99
2017-07-22T04:38:37.720Z,99.99
2017-07-22T04:39:03.909Z,99.99
2017-07-22T04:39:30.023Z,99.99
2017-07-22T04:39:56.147Z,99.99
2017-07-22T04:40:22.330Z,99.99
2017-07-22T04:40:48.485Z,99.99
2017-07-22T04:41:14.672Z,99.99
2017-07-22T04:41:40.814Z,99.99
2017-07-22T04:42:06.983Z,99.99
2017-07-22T04:42:33.169Z,99.99
2017-07-22T04:42:59.283Z,99.99
2017-07-22T04:43:25.422Z,99.99
2017-07-22T04:43:51.580Z,99.99
2017-07-22T04:44:17.798Z,99.99
2017-07-22T04:44:44.019Z,99.99
2017-07-22T04:45:10.191Z,99.99
2017-07-22T04:45:36.331Z,99.99
2017-07-22T04:46:02.523Z,99.99
2017-07-22T04:46:28.674Z,99.99
2017-07-22T04:46:54.782Z,99.99
2017-07-22T04:47:20.989Z,99.99
2017-07-22T04:47:47.160Z,99.99
2017-07-22T04:48:13.309Z,99.99
2017-07-22T04:48:39.545Z,99.99
2017-07-22T04:49:05.734Z,99.99
2017-07-22T04:49:31.920Z,99.99
2017-07-22T04:49:58.068Z,99.99
2017-07-22T04:50:24.282Z,99.99
2017-07-22T04:50:50.420Z,99.99
2017-07-22T04:51:16.565Z,99.99
2017-07-22T04:51:42.720Z,99.99
2017-07-22T04:52:08.901Z,99.99
2017-07-22T04:52:35.092Z,99.99
2017-07-22T04:53:01.252Z,99.99
2017-07-22T04:53:27.392Z,99.99
2017-07-22T04:53:53.558Z,99.99
2017-07-22T04:54:19.711Z,99.99
2017-07-22T04:54:45.862Z,99.99
2017-07-22T04:55:11.996Z,99.99
2017-07-22T04:55:38.152Z,99.99
2017-07-22T04:56:04.310Z,99.99
2017-07-22T04:56:30.481Z,99.99
2017-07-22T04:56:56.630Z,99.99
2017-07-22T04:57:22.739Z,99.99
2017-07-22T04:57:48.865Z,99.99
2017-07-22T04:58:15.015Z,99.99
2017-07-22T04:58:41.208Z,99.99
2017-07-22T04:59:07.413Z,99.99
2017-07-22T04:59:33.571Z,99.99
2017-07-22T04:59:59.736Z,99.99
2017-07-22T05:00:25.855Z,99.99
2017-07-22T05:00:52.008Z,99.99
2017-07-22T05:01:18.206Z,99.99
2017-07-22T05:01:44.345Z,99.99
2017-07-22T05:02:10.524Z,99.99
2017-07-22T05:02:36.669Z,99.99
2017-07-22T05:03:02.828Z,99.99
2017-07-22T05:03:28.939Z,99.99
2017-07-22T05:03:55.109Z,99.99
2017-07-22T05:04:21.269Z,99.99
2017-07-22T05:04:47.447Z,99.99
2017-07-22T05:05:13.575Z,99.99
2017-07-22T05:05:39.793Z,99.99
2017-07-22T05:06:05.937Z,99.99
2017-07-22T05:06:32.071Z,99.99
2017-07-22T05:06:58.202Z,99.99
2017-07-22T05:07:24.373Z,99.99
2017-07-22T05:07:50.559Z,99.99
2017-07-22T05:08:16.673Z,99.99
2017-07-22T05:08:42.843Z,99.99
2017-07-22T05:09:08.970Z,99.99
2017-07-22T05:09:35.142Z,99.99
2017-07-22T05:10:01.277Z,99.99
2017-07-22T05:10:27.431Z,99.99
2017-07-22T05:10:53.578Z,99.99
2017-07-22T05:11:19.720Z,99.99
2017-07-22T05:11:45.906Z,99.99
2017-07-22T05:12:12.058Z,99.99
2017-07-22T05:12:38.248Z,99.99
2017-07-22T05:13:04.372Z,99.99
2017-07-22T05:13:30.558Z,99.99
2017-07-22T05:13:56.665Z,99.99
2017-07-22T05:14:22.811Z,99.99
2017-07-22T05:14:48.937Z,99.99
2017-07-22T05:15:15.078Z,99.99
2017-07-22T05:15:41.255Z,99.99
2017-07-22T05:16:07.374Z,99.99
2017-07-22T05:16:33.545Z,99.99
2017-07-22T05:16:59.681Z,99.99
2017-07-22T05:17:25.849Z,99.99
2017-07-22T05:17:51.963Z,99.99
2017-07-22T05:18:18.132Z,99.99
2017-07-22T05:18:44.285Z,99.99
2017-07-22T05:19:10.458Z,99.99
2017-07-22T05:19:36.617Z,99.99
2017-07-22T05:20:02.760Z,99.99
2017-07-22T05:20:28.924Z,99.99
2017-07-22T05:20:55.083Z,99.99
2017-07-22T05:21:21.227Z,99.99
2017-07-22T05:21:47.361Z,99.99
2017-07-22T05:22:13.520Z,99.99
2017-07-22T05:22:39.671Z,99.99
2017-07-22T05:23:05.804Z,99.99
2017-07-22T05:23:31.924Z,99.99
2017-07-22T05:23:58.108Z,99.99
2017-07-22T05:24:24.272Z,99.99
2017-07-22T05:24:50.417Z,99.99
2017-07-22T05:25:16.554Z,99.99
2017-07-22T05:25:42.741Z,99.99
2017-07-22T05:26:08.860Z,99.99
2017-07-22T05:26:34.997Z,99.99
2017-07-22T05:27:01.182Z,99.99
2017-07-22T05:27:27.367Z,99.99
2017-07-22T05:27:53.503Z,99.99
2017-07-22T05:28:19.650Z,99.99
2017-07-22T05:28:45.871Z,99.99
2017-07-22T05:29:12.034Z,99.99
2017-07-22T05:29:38.149Z,99.99
2017-07-22T05:30:04.364Z,99.99
2017-07-22T05:30:30.518Z,99.99
2017-07-22T05:30:56.674Z,99.99
2017-07-22T05:31:22.784Z,99.99
2017-07-22T05:31:48.933Z,99.99
2017-07-22T05:32:15.056Z,99.99
2017-07-22T05:32:41.168Z,99.99
2017-07-22T05:33:07.315Z,99.99
2017-07-22T05:33:33.503Z,99.99
2017-07-22T05:33:59.700Z,99.99
2017-07-22T05:34:25.842Z,99.99
2017-07-22T05:34:51.969Z,99.99
2017-07-22T05:35:18.117Z,99.99
2017-07-22T05:35:44.299Z,99.99
2017-07-22T05:36:10.498Z,99.99
2017-07-22T05:36:36.676Z,99.99
2017-07-22T05:37:02.833Z,99.99
2017-07-22T05:37:28.947Z,99.99
2017-07-22T05:37:55.056Z,99.99